sensor_id;sensor_type;location;lat;lon;timestamp;pressure;altitude;pressure_sealevel;temperature;humidity
71857;BME280;63344;46.980;28.882;2023-06-22T00:02:26;100979.88;;;19.32;76.91
71857;BME280;63344;46.980;28.882;2023-06-22T00:05:16;100978.69;;;19.36;76.44
71857;BME280;63344;46.980;28.882;2023-06-22T00:08:22;100974.38;;;19.34;76.42
71857;BME280;63344;46.980;28.882;2023-06-22T00:11:04;100975.66;;;19.28;76.55
71857;BME280;63344;46.980;28.882;2023-06-22T00:13:42;100976.75;;;19.25;76.67
71857;BME280;63344;46.980;28.882;2023-06-22T00:16:28;100983.94;;;19.25;76.98
71857;BME280;63344;46.980;28.882;2023-06-22T00:19:09;100985.78;;;19.24;76.77
71857;BME280;63344;46.980;28.882;2023-06-22T00:21:46;100982.44;;;19.21;76.88
71857;BME280;63344;46.980;28.882;2023-06-22T00:24:36;100986.31;;;19.17;77.07
71857;BME280;63344;46.980;28.882;2023-06-22T00:27:28;100989.00;;;19.17;77.61
71857;BME280;63344;46.980;28.882;2023-06-22T00:30:19;100983.09;;;19.12;77.36
71857;BME280;63344;46.980;28.882;2023-06-22T00:32:48;100985.97;;;19.08;77.40
71857;BME280;63344;46.980;28.882;2023-06-22T00:35:37;100981.44;;;19.09;77.72
71857;BME280;63344;46.980;28.882;2023-06-22T00:38:27;100985.78;;;19.12;77.82
71857;BME280;63344;46.980;28.882;2023-06-22T00:41:21;100984.69;;;19.14;77.52
71857;BME280;63344;46.980;28.882;2023-06-22T00:44:21;100983.63;;;19.17;77.61
71857;BME280;63344;46.980;28.882;2023-06-22T00:46:54;100974.47;;;19.19;77.69
71857;BME280;63344;46.980;28.882;2023-06-22T00:49:25;100970.91;;;19.19;77.83
71857;BME280;63344;46.980;28.882;2023-06-22T00:51:58;100981.69;;;19.19;77.62
71857;BME280;63344;46.980;28.882;2023-06-22T00:55:15;100987.28;;;19.16;77.88
71857;BME280;63344;46.980;28.882;2023-06-22T00:58:36;100986.53;;;19.14;77.72
71857;BME280;63344;46.980;28.882;2023-06-22T01:02:19;100985.03;;;19.09;77.60
71857;BME280;63344;46.980;28.882;2023-06-22T01:05:31;100979.06;;;19.04;77.91
71857;BME280;63344;46.980;28.882;2023-06-22T01:08:41;100976.47;;;19.03;77.92
71857;BME280;63344;46.980;28.882;2023-06-22T01:11:36;100972.94;;;19.02;78.21
71857;BME280;63344;46.980;28.882;2023-06-22T01:18:46;100978.19;;;18.91;78.77
71857;BME280;63344;46.980;28.882;2023-06-22T01:22:49;100985.72;;;18.86;78.69
71857;BME280;63344;46.980;28.882;2023-06-22T01:29:41;100993.22;;;18.81;79.16
71857;BME280;63344;46.980;28.882;2023-06-22T01:32:38;100995.72;;;18.84;78.93
71857;BME280;63344;46.980;28.882;2023-06-22T01:35:10;100993.69;;;18.87;79.02
71857;BME280;63344;46.980;28.882;2023-06-22T01:37:48;100999.72;;;18.91;78.99
71857;BME280;63344;46.980;28.882;2023-06-22T01:40:41;100998.66;;;18.94;79.05
71857;BME280;63344;46.980;28.882;2023-06-22T01:43:41;101005.56;;;18.98;78.68
71857;BME280;63344;46.980;28.882;2023-06-22T01:46:14;101006.66;;;18.95;78.38
71857;BME280;63344;46.980;28.882;2023-06-22T01:49:18;101003.28;;;18.92;78.57
71857;BME280;63344;46.980;28.882;2023-06-22T01:52:12;101005.31;;;18.88;78.95
71857;BME280;63344;46.980;28.882;2023-06-22T01:54:56;101001.03;;;18.85;78.89
71857;BME280;63344;46.980;28.882;2023-06-22T01:57:29;101013.72;;;18.83;79.09
71857;BME280;63344;46.980;28.882;2023-06-22T02:00:26;101012.25;;;18.78;79.07
71857;BME280;63344;46.980;28.882;2023-06-22T02:03:41;101015.38;;;18.71;79.65
71857;BME280;63344;46.980;28.882;2023-06-22T02:06:42;101017.91;;;18.60;79.72
71857;BME280;63344;46.980;28.882;2023-06-22T02:09:37;101012.16;;;18.52;80.21
71857;BME280;63344;46.980;28.882;2023-06-22T02:13:23;101017.09;;;18.45;80.93
71857;BME280;63344;46.980;28.882;2023-06-22T02:16:44;101021.03;;;18.40;80.65
71857;BME280;63344;46.980;28.882;2023-06-22T02:20:40;101019.22;;;18.40;81.25
71857;BME280;63344;46.980;28.882;2023-06-22T02:24:29;101019.03;;;18.43;81.48
71857;BME280;63344;46.980;28.882;2023-06-22T02:27:36;101031.94;;;18.51;81.64
71857;BME280;63344;46.980;28.882;2023-06-22T02:30:58;101028.09;;;18.55;81.32
71857;BME280;63344;46.980;28.882;2023-06-22T02:34:07;101022.59;;;18.57;81.51
71857;BME280;63344;46.980;28.882;2023-06-22T02:36:46;101023.94;;;18.64;81.50
71857;BME280;63344;46.980;28.882;2023-06-22T02:39:50;101023.44;;;18.71;81.37
71857;BME280;63344;46.980;28.882;2023-06-22T02:42:47;101021.88;;;18.82;81.69
71857;BME280;63344;46.980;28.882;2023-06-22T02:45:48;101020.88;;;18.97;81.16
71857;BME280;63344;46.980;28.882;2023-06-22T02:48:25;101022.59;;;19.11;80.84
71857;BME280;63344;46.980;28.882;2023-06-22T02:51:30;101029.72;;;19.25;80.63
71857;BME280;63344;46.980;28.882;2023-06-22T02:54:42;101038.91;;;19.35;80.02
71857;BME280;63344;46.980;28.882;2023-06-22T02:57:54;101044.09;;;19.51;79.80
71857;BME280;63344;46.980;28.882;2023-06-22T03:00:48;101047.31;;;19.69;79.49
71857;BME280;63344;46.980;28.882;2023-06-22T03:08:49;101048.25;;;20.32;78.21
71857;BME280;63344;46.980;28.882;2023-06-22T03:11:49;101051.66;;;20.60;78.65
71857;BME280;63344;46.980;28.882;2023-06-22T03:14:40;101063.19;;;20.86;77.44
71857;BME280;63344;46.980;28.882;2023-06-22T03:17:49;101051.06;;;21.16;76.54
71857;BME280;63344;46.980;28.882;2023-06-22T03:20:35;101049.16;;;21.40;75.36
71857;BME280;63344;46.980;28.882;2023-06-22T03:23:46;101044.31;;;21.68;74.52
71857;BME280;63344;46.980;28.882;2023-06-22T03:26:57;101036.09;;;21.92;73.75
71857;BME280;63344;46.980;28.882;2023-06-22T03:29:54;101042.38;;;22.26;72.10
71857;BME280;63344;46.980;28.882;2023-06-22T03:33:22;101035.91;;;22.61;71.52
71857;BME280;63344;46.980;28.882;2023-06-22T03:36:17;101036.03;;;22.92;69.85
71857;BME280;63344;46.980;28.882;2023-06-22T03:39:07;101035.72;;;23.18;68.01
71857;BME280;63344;46.980;28.882;2023-06-22T03:42:31;101028.66;;;23.48;66.89
71857;BME280;63344;46.980;28.882;2023-06-22T03:45:46;101025.59;;;23.83;65.66
71857;BME280;63344;46.980;28.882;2023-06-22T03:48:43;101028.81;;;24.08;64.95
71857;BME280;63344;46.980;28.882;2023-06-22T03:51:56;101031.66;;;24.47;63.78
71857;BME280;63344;46.980;28.882;2023-06-22T03:54:48;101020.00;;;24.75;62.46
71857;BME280;63344;46.980;28.882;2023-06-22T03:57:53;101026.28;;;25.05;61.71
71857;BME280;63344;46.980;28.882;2023-06-22T04:00:47;101026.00;;;25.28;60.08
71857;BME280;63344;46.980;28.882;2023-06-22T04:08:14;101024.25;;;26.03;58.12
71857;BME280;63344;46.980;28.882;2023-06-22T04:19:22;101017.63;;;26.79;55.44
71857;BME280;63344;46.980;28.882;2023-06-22T04:55:37;101047.72;;;28.01;48.72
71857;BME280;63344;46.980;28.882;2023-06-22T05:02:41;101049.00;;;28.58;48.75
71857;BME280;63344;46.980;28.882;2023-06-22T05:06:17;101057.94;;;28.85;47.52
71857;BME280;63344;46.980;28.882;2023-06-22T05:09:41;101060.50;;;28.86;47.34
71857;BME280;63344;46.980;28.882;2023-06-22T05:13:30;101057.94;;;28.93;46.50
71857;BME280;63344;46.980;28.882;2023-06-22T05:16:30;101058.88;;;29.18;48.02
71857;BME280;63344;46.980;28.882;2023-06-22T05:19:53;101068.06;;;29.58;46.44
71857;BME280;63344;46.980;28.882;2023-06-22T05:22:53;101064.59;;;29.97;46.29
71857;BME280;63344;46.980;28.882;2023-06-22T05:26:16;101063.78;;;30.36;44.56
71857;BME280;63344;46.980;28.882;2023-06-22T05:29:51;101066.34;;;30.29;43.65
71857;BME280;63344;46.980;28.882;2023-06-22T05:33:01;101067.09;;;30.15;43.52
71857;BME280;63344;46.980;28.882;2023-06-22T05:36:22;101065.53;;;30.21;44.23
71857;BME280;63344;46.980;28.882;2023-06-22T05:40:01;101059.25;;;30.51;43.99
71857;BME280;63344;46.980;28.882;2023-06-22T05:43:37;101061.63;;;30.86;44.28
71857;BME280;63344;46.980;28.882;2023-06-22T05:46:35;101051.25;;;31.19;44.16
71857;BME280;63344;46.980;28.882;2023-06-22T05:49:03;101047.88;;;31.55;43.69
71857;BME280;63344;46.980;28.882;2023-06-22T05:51:51;101049.78;;;31.69;42.78
71857;BME280;63344;46.980;28.882;2023-06-22T05:54:56;101048.94;;;31.69;42.16
71857;BME280;63344;46.980;28.882;2023-06-22T05:57:43;101045.91;;;31.64;41.82
71857;BME280;63344;46.980;28.882;2023-06-22T06:00:43;101057.28;;;31.90;41.87
71857;BME280;63344;46.980;28.882;2023-06-22T06:04:30;101057.59;;;31.95;41.82
71857;BME280;63344;46.980;28.882;2023-06-22T06:07:59;101052.16;;;31.58;41.67
71857;BME280;63344;46.980;28.882;2023-06-22T06:10:59;101060.13;;;31.06;41.19
71857;BME280;63344;46.980;28.882;2023-06-22T06:14:25;101060.63;;;30.47;41.98
71857;BME280;63344;46.980;28.882;2023-06-22T06:17:33;101066.97;;;30.00;42.61
71857;BME280;63344;46.980;28.882;2023-06-22T06:20:29;101065.81;;;29.62;43.96
71857;BME280;63344;46.980;28.882;2023-06-22T06:24:00;101061.25;;;29.13;44.66
71857;BME280;63344;46.980;28.882;2023-06-22T06:26:42;101064.63;;;28.90;45.18
71857;BME280;63344;46.980;28.882;2023-06-22T06:33:19;101059.84;;;28.41;46.85
71857;BME280;63344;46.980;28.882;2023-06-22T06:35:54;101068.34;;;28.30;47.28
71857;BME280;63344;46.980;28.882;2023-06-22T06:38:58;101065.75;;;28.20;47.83
71857;BME280;63344;46.980;28.882;2023-06-22T06:42:12;101063.25;;;28.01;47.70
71857;BME280;63344;46.980;28.882;2023-06-22T06:45:20;101061.38;;;27.75;48.11
71857;BME280;63344;46.980;28.882;2023-06-22T06:48:28;101074.44;;;27.64;48.20
71857;BME280;63344;46.980;28.882;2023-06-22T06:51:34;101074.16;;;27.49;48.54
71857;BME280;63344;46.980;28.882;2023-06-22T06:54:34;101065.06;;;27.40;48.71
71857;BME280;63344;46.980;28.882;2023-06-22T06:57:31;101069.50;;;27.41;49.06
71857;BME280;63344;46.980;28.882;2023-06-22T07:00:29;101062.00;;;27.43;49.20
71857;BME280;63344;46.980;28.882;2023-06-22T07:03:57;101063.19;;;27.40;48.59
71857;BME280;63344;46.980;28.882;2023-06-22T07:07:10;101058.03;;;27.37;48.01
71857;BME280;63344;46.980;28.882;2023-06-22T07:10:34;101062.25;;;27.32;47.52
71857;BME280;63344;46.980;28.882;2023-06-22T07:13:31;101071.31;;;27.32;47.55
71857;BME280;63344;46.980;28.882;2023-06-22T07:17:04;101069.28;;;27.34;48.26
71857;BME280;63344;46.980;28.882;2023-06-22T07:19:52;101059.22;;;27.35;47.88
71857;BME280;63344;46.980;28.882;2023-06-22T07:23:02;101061.31;;;27.41;48.21
71857;BME280;63344;46.980;28.882;2023-06-22T07:26:12;101059.88;;;27.55;48.25
71857;BME280;63344;46.980;28.882;2023-06-22T07:29:42;101057.53;;;27.60;47.33
71857;BME280;63344;46.980;28.882;2023-06-22T07:33:23;101050.78;;;27.46;46.24
71857;BME280;63344;46.980;28.882;2023-06-22T07:36:41;101046.53;;;27.52;47.04
71857;BME280;63344;46.980;28.882;2023-06-22T07:40:00;101040.19;;;27.69;47.34
71857;BME280;63344;46.980;28.882;2023-06-22T07:43:31;101047.78;;;27.84;46.05
71857;BME280;63344;46.980;28.882;2023-06-22T07:46:40;101047.16;;;27.90;45.91
71857;BME280;63344;46.980;28.882;2023-06-22T07:49:41;101047.22;;;27.98;45.62
71857;BME280;63344;46.980;28.882;2023-06-22T07:52:38;101040.41;;;28.02;45.63
71857;BME280;63344;46.980;28.882;2023-06-22T07:55:36;101053.09;;;28.19;46.00
71857;BME280;63344;46.980;28.882;2023-06-22T07:58:41;101040.00;;;28.31;45.12
71857;BME280;63344;46.980;28.882;2023-06-22T08:02:08;101040.91;;;28.40;45.07
71857;BME280;63344;46.980;28.882;2023-06-22T08:05:25;101039.25;;;28.64;44.69
71857;BME280;63344;46.980;28.882;2023-06-22T08:08:59;101041.16;;;28.63;43.48
71857;BME280;63344;46.980;28.882;2023-06-22T08:12:10;101032.78;;;28.73;42.99
71857;BME280;63344;46.980;28.882;2023-06-22T08:15:08;101037.75;;;28.69;42.46
71857;BME280;63344;46.980;28.882;2023-06-22T08:18:06;101037.59;;;28.71;43.08
71857;BME280;63344;46.980;28.882;2023-06-22T08:21:07;101052.63;;;28.91;42.74
71857;BME280;63344;46.980;28.882;2023-06-22T08:23:56;101052.19;;;29.21;43.19
71857;BME280;63344;46.980;28.882;2023-06-22T08:31:18;101048.06;;;29.66;41.67
71857;BME280;63344;46.980;28.882;2023-06-22T08:34:16;101051.41;;;30.01;41.71
71857;BME280;63344;46.980;28.882;2023-06-22T08:37:32;101046.28;;;31.00;41.04
71857;BME280;63344;46.980;28.882;2023-06-22T08:40:19;101035.31;;;32.20;39.51
71857;BME280;63344;46.980;28.882;2023-06-22T08:52:25;101033.47;;;36.21;31.15
71857;BME280;63344;46.980;28.882;2023-06-22T08:56:05;101027.81;;;35.83;31.06
71857;BME280;63344;46.980;28.882;2023-06-22T08:59:58;101027.09;;;36.01;29.36
71857;BME280;63344;46.980;28.882;2023-06-22T09:03:00;101029.72;;;35.82;30.33
71857;BME280;63344;46.980;28.882;2023-06-22T09:06:34;101038.59;;;36.63;28.90
71857;BME280;63344;46.980;28.882;2023-06-22T09:09:47;101031.66;;;37.17;29.16
71857;BME280;63344;46.980;28.882;2023-06-22T09:12:49;101027.75;;;37.69;28.11
71857;BME280;63344;46.980;28.882;2023-06-22T09:15:20;101025.41;;;36.90;28.80
71857;BME280;63344;46.980;28.882;2023-06-22T09:18:21;101033.19;;;35.31;29.34
71857;BME280;63344;46.980;28.882;2023-06-22T09:21:25;101037.09;;;33.79;31.89
71857;BME280;63344;46.980;28.882;2023-06-22T09:25:12;101034.78;;;33.82;33.57
71857;BME280;63344;46.980;28.882;2023-06-22T10:08:36;101016.56;;;37.57;27.24
71857;BME280;63344;46.980;28.882;2023-06-22T12:12:29;100913.06;;;32.38;31.47
71857;BME280;63344;46.980;28.882;2023-06-22T13:12:55;100891.63;;;31.60;33.46
71857;BME280;63344;46.980;28.882;2023-06-22T14:14:42;100852.97;;;31.17;34.51
71857;BME280;63344;46.980;28.882;2023-06-22T15:38:13;100861.13;;;31.25;34.77
71857;BME280;63344;46.980;28.882;2023-06-22T15:42:10;100853.94;;;31.24;34.83
71857;BME280;63344;46.980;28.882;2023-06-22T15:50:33;100857.03;;;31.21;34.27
71857;BME280;63344;46.980;28.882;2023-06-22T15:54:21;100865.56;;;31.26;34.93
71857;BME280;63344;46.980;28.882;2023-06-22T15:58:36;100868.50;;;31.25;34.76
71857;BME280;63344;46.980;28.882;2023-06-22T16:14:55;100866.25;;;31.28;34.85
71857;BME280;63344;46.980;28.882;2023-06-22T19:11:50;100932.47;;;24.42;53.62
71857;BME280;63344;46.980;28.882;2023-06-22T19:16:12;100929.28;;;24.28;54.26
71857;BME280;63344;46.980;28.882;2023-06-22T19:33:07;100937.47;;;23.77;56.05
71857;BME280;63344;46.980;28.882;2023-06-22T20:19:40;100929.56;;;23.64;55.54
71857;BME280;63344;46.980;28.882;2023-06-22T20:22:18;100939.09;;;23.59;55.96
71857;BME280;63344;46.980;28.882;2023-06-22T20:33:16;100935.69;;;23.36;55.81
71857;BME280;63344;46.980;28.882;2023-06-22T20:36:22;100933.38;;;23.31;56.02
71857;BME280;63344;46.980;28.882;2023-06-22T20:39:33;100926.94;;;23.32;55.83
71857;BME280;63344;46.980;28.882;2023-06-22T20:42:35;100938.81;;;23.31;55.89
71857;BME280;63344;46.980;28.882;2023-06-22T20:45:07;100937.81;;;23.32;55.90
71857;BME280;63344;46.980;28.882;2023-06-22T20:48:28;100934.66;;;23.27;56.12
71857;BME280;63344;46.980;28.882;2023-06-22T20:51:35;100937.91;;;23.21;55.70
71857;BME280;63344;46.980;28.882;2023-06-22T20:54:23;100941.72;;;23.18;55.75
71857;BME280;63344;46.980;28.882;2023-06-22T20:57:18;100937.72;;;23.13;56.41
71857;BME280;63344;46.980;28.882;2023-06-22T21:00:22;100944.38;;;23.09;56.13
71857;BME280;63344;46.980;28.882;2023-06-22T21:03:37;100936.63;;;23.04;56.91
71857;BME280;63344;46.980;28.882;2023-06-22T21:06:24;100944.13;;;23.00;56.67
71857;BME280;63344;46.980;28.882;2023-06-22T21:09:10;100938.00;;;22.98;57.13
71857;BME280;63344;46.980;28.882;2023-06-22T21:16:14;100933.81;;;22.94;56.92
71857;BME280;63344;46.980;28.882;2023-06-22T21:18:59;100940.25;;;22.93;56.83
71857;BME280;63344;46.980;28.882;2023-06-22T21:21:49;100929.53;;;22.92;56.64
71857;BME280;63344;46.980;28.882;2023-06-22T21:24:40;100938.53;;;22.92;56.61
71857;BME280;63344;46.980;28.882;2023-06-22T21:27:33;100932.25;;;22.92;56.44
71857;BME280;63344;46.980;28.882;2023-06-22T21:30:09;100927.69;;;22.92;56.78
71857;BME280;63344;46.980;28.882;2023-06-22T21:32:50;100922.13;;;22.94;56.51
71857;BME280;63344;46.980;28.882;2023-06-22T21:35:34;100930.16;;;22.95;56.54
71857;BME280;63344;46.980;28.882;2023-06-22T21:38:51;100925.84;;;22.93;56.65
71857;BME280;63344;46.980;28.882;2023-06-22T21:41:23;100919.44;;;22.94;56.62
71857;BME280;63344;46.980;28.882;2023-06-22T21:44:27;100919.19;;;22.97;56.58
71857;BME280;63344;46.980;28.882;2023-06-22T21:47:36;100917.81;;;23.02;56.91
71857;BME280;63344;46.980;28.882;2023-06-22T21:50:50;100920.00;;;23.09;56.83
71857;BME280;63344;46.980;28.882;2023-06-22T22:02:16;100929.53;;;23.03;57.20
71857;BME280;63344;46.980;28.882;2023-06-22T22:05:07;100925.44;;;22.97;57.51
71857;BME280;63344;46.980;28.882;2023-06-22T22:08:18;100921.16;;;22.95;57.73
71857;BME280;63344;46.980;28.882;2023-06-22T22:11:26;100919.72;;;22.91;58.00
71857;BME280;63344;46.980;28.882;2023-06-22T22:14:39;100924.25;;;22.90;57.90
71857;BME280;63344;46.980;28.882;2023-06-22T22:21:13;100914.75;;;22.75;58.18
71857;BME280;63344;46.980;28.882;2023-06-22T22:24:15;100915.59;;;22.75;58.63
71857;BME280;63344;46.980;28.882;2023-06-22T22:27:04;100917.19;;;22.78;58.74
71857;BME280;63344;46.980;28.882;2023-06-22T22:30:34;100914.16;;;22.71;59.03
71857;BME280;63344;46.980;28.882;2023-06-22T22:33:31;100912.81;;;22.65;58.85
71857;BME280;63344;46.980;28.882;2023-06-22T22:36:18;100913.47;;;22.58;59.34
71857;BME280;63344;46.980;28.882;2023-06-22T22:39:38;100909.44;;;22.52;59.23
71857;BME280;63344;46.980;28.882;2023-06-22T22:42:42;100907.97;;;22.48;59.76
71857;BME280;63344;46.980;28.882;2023-06-22T22:45:37;100897.53;;;22.43;59.53
71857;BME280;63344;46.980;28.882;2023-06-22T22:48:20;100904.09;;;22.41;59.57
71857;BME280;63344;46.980;28.882;2023-06-22T22:51:05;100904.44;;;22.36;59.99
71857;BME280;63344;46.980;28.882;2023-06-22T22:53:54;100901.66;;;22.26;60.20
71857;BME280;63344;46.980;28.882;2023-06-22T22:56:51;100901.16;;;22.21;60.32
71857;BME280;63344;46.980;28.882;2023-06-22T22:59:34;100894.28;;;22.17;60.69
71857;BME280;63344;46.980;28.882;2023-06-22T23:02:13;100890.00;;;22.15;60.75
71857;BME280;63344;46.980;28.882;2023-06-22T23:05:01;100892.94;;;22.12;61.03
71857;BME280;63344;46.980;28.882;2023-06-22T23:07:34;100896.06;;;22.07;61.86
71857;BME280;63344;46.980;28.882;2023-06-22T23:10:10;100894.09;;;21.98;61.75
71857;BME280;63344;46.980;28.882;2023-06-22T23:12:51;100888.19;;;21.93;61.68
71857;BME280;63344;46.980;28.882;2023-06-22T23:15:34;100890.44;;;21.87;61.72
71857;BME280;63344;46.980;28.882;2023-06-22T23:18:24;100890.81;;;21.83;61.94
71857;BME280;63344;46.980;28.882;2023-06-22T23:21:34;100890.22;;;21.79;62.19
71857;BME280;63344;46.980;28.882;2023-06-22T23:24:14;100890.72;;;21.73;61.81
71857;BME280;63344;46.980;28.882;2023-06-22T23:27:17;100894.88;;;21.66;62.48
71857;BME280;63344;46.980;28.882;2023-06-22T23:29:57;100892.28;;;21.64;62.57
71857;BME280;63344;46.980;28.882;2023-06-22T23:32:36;100895.38;;;21.60;63.14
71857;BME280;63344;46.980;28.882;2023-06-22T23:35:16;100897.59;;;21.55;62.77
71857;BME280;63344;46.980;28.882;2023-06-22T23:37:52;100892.44;;;21.52;63.19
71857;BME280;63344;46.980;28.882;2023-06-22T23:40:36;100892.56;;;21.50;63.10
71857;BME280;63344;46.980;28.882;2023-06-22T23:43:07;100891.94;;;21.46;63.21
71857;BME280;63344;46.980;28.882;2023-06-22T23:45:41;100888.50;;;21.44;63.69
71857;BME280;63344;46.980;28.882;2023-06-22T23:48:16;100891.34;;;21.43;63.36
71857;BME280;63344;46.980;28.882;2023-06-22T23:50:50;100896.09;;;21.39;63.30
71857;BME280;63344;46.980;28.882;2023-06-22T23:53:54;100886.25;;;21.38;63.51
71857;BME280;63344;46.980;28.882;2023-06-22T23:56:50;100880.00;;;21.38;63.46
71857;BME280;63344;46.980;28.882;2023-06-22T23:59:38;100878.53;;;21.34;63.15
